sensor_id;sensor_type;location;lat;lon;timestamp;temperature;humidity
44166;DHT22;30476;53.468;9.826;2023-03-14T00:00:25;12.00;99.90
44166;DHT22;30476;53.468;9.826;2023-03-14T00:02:54;11.90;99.90
44166;DHT22;30476;53.468;9.826;2023-03-14T00:05:20;11.90;99.90
44166;DHT22;30476;53.468;9.826;2023-03-14T00:07:45;11.90;99.90
44166;DHT22;30476;53.468;9.826;2023-03-14T00:10:13;11.90;99.90
44166;DHT22;30476;53.468;9.826;2023-03-14T00:12:40;11.90;99.90
44166;DHT22;30476;53.468;9.826;2023-03-14T00:15:07;11.90;99.90
44166;DHT22;30476;53.468;9.826;2023-03-14T00:17:34;11.80;99.90
44166;DHT22;30476;53.468;9.826;2023-03-14T00:20:01;11.80;99.90
44166;DHT22;30476;53.468;9.826;2023-03-14T00:22:38;11.70;99.90
44166;DHT22;30476;53.468;9.826;2023-03-14T00:25:05;11.60;99.90
44166;DHT22;30476;53.468;9.826;2023-03-14T00:27:32;11.70;99.90
44166;DHT22;30476;53.468;9.826;2023-03-14T00:29:58;11.80;99.90
44166;DHT22;30476;53.468;9.826;2023-03-14T00:32:23;11.80;99.90
44166;DHT22;30476;53.468;9.826;2023-03-14T00:34:49;11.80;99.90
44166;DHT22;30476;53.468;9.826;2023-03-14T00:37:15;11.80;99.90
44166;DHT22;30476;53.468;9.826;2023-03-14T00:39:41;11.80;99.90
44166;DHT22;30476;53.468;9.826;2023-03-14T00:42:07;11.80;99.90
44166;DHT22;30476;53.468;9.826;2023-03-14T00:44:33;11.80;99.90
44166;DHT22;30476;53.468;9.826;2023-03-14T00:46:59;11.80;99.90
44166;DHT22;30476;53.468;9.826;2023-03-14T00:49:25;11.80;99.90
44166;DHT22;30476;53.468;9.826;2023-03-14T00:51:51;11.80;99.90
44166;DHT22;30476;53.468;9.826;2023-03-14T00:54:18;11.80;99.90
44166;DHT22;30476;53.468;9.826;2023-03-14T00:56:44;11.80;99.90
44166;DHT22;30476;53.468;9.826;2023-03-14T00:59:09;11.80;99.90
44166;DHT22;30476;53.468;9.826;2023-03-14T01:01:35;11.80;99.90
44166;DHT22;30476;53.468;9.826;2023-03-14T01:04:01;11.80;99.90
44166;DHT22;30476;53.468;9.826;2023-03-14T01:06:29;11.80;99.90
44166;DHT22;30476;53.468;9.826;2023-03-14T01:08:56;11.70;99.90
44166;DHT22;30476;53.468;9.826;2023-03-14T01:11:30;11.80;99.90
44166;DHT22;30476;53.468;9.826;2023-03-14T01:13:56;11.70;99.90
44166;DHT22;30476;53.468;9.826;2023-03-14T01:16:24;11.70;99.90
44166;DHT22;30476;53.468;9.826;2023-03-14T01:18:50;11.70;99.90
44166;DHT22;30476;53.468;9.826;2023-03-14T01:23:47;11.80;99.90
44166;DHT22;30476;53.468;9.826;2023-03-14T01:26:16;11.70;99.90
44166;DHT22;30476;53.468;9.826;2023-03-14T01:28:45;11.70;99.90
44166;DHT22;30476;53.468;9.826;2023-03-14T01:31:11;11.70;99.90
44166;DHT22;30476;53.468;9.826;2023-03-14T01:33:38;11.80;99.90
44166;DHT22;30476;53.468;9.826;2023-03-14T01:36:05;11.80;99.90
44166;DHT22;30476;53.468;9.826;2023-03-14T01:38:35;11.80;99.90
44166;DHT22;30476;53.468;9.826;2023-03-14T01:41:01;11.80;99.90
44166;DHT22;30476;53.468;9.826;2023-03-14T01:43:28;11.80;99.90
44166;DHT22;30476;53.468;9.826;2023-03-14T01:48:39;11.80;99.90
44166;DHT22;30476;53.468;9.826;2023-03-14T01:51:10;11.80;99.90
44166;DHT22;30476;53.468;9.826;2023-03-14T01:53:38;11.80;99.90
44166;DHT22;30476;53.468;9.826;2023-03-14T01:56:07;11.80;99.90
44166;DHT22;30476;53.468;9.826;2023-03-14T01:58:33;11.80;99.90
44166;DHT22;30476;53.468;9.826;2023-03-14T02:01:03;11.80;99.90
44166;DHT22;30476;53.468;9.826;2023-03-14T02:03:31;11.70;99.90
44166;DHT22;30476;53.468;9.826;2023-03-14T02:06:00;11.70;99.90
44166;DHT22;30476;53.468;9.826;2023-03-14T02:08:31;11.80;99.90
44166;DHT22;30476;53.468;9.826;2023-03-14T02:10:57;11.70;99.90
44166;DHT22;30476;53.468;9.826;2023-03-14T02:13:23;11.80;99.90
44166;DHT22;30476;53.468;9.826;2023-03-14T02:15:49;11.70;99.90
44166;DHT22;30476;53.468;9.826;2023-03-14T02:18:16;11.70;99.90
44166;DHT22;30476;53.468;9.826;2023-03-14T02:20:52;11.70;99.90
44166;DHT22;30476;53.468;9.826;2023-03-14T02:23:58;11.70;99.90
44166;DHT22;30476;53.468;9.826;2023-03-14T02:27:07;11.60;99.90
44166;DHT22;30476;53.468;9.826;2023-03-14T02:29:36;11.60;99.90
44166;DHT22;30476;53.468;9.826;2023-03-14T02:32:05;11.60;99.90
44166;DHT22;30476;53.468;9.826;2023-03-14T02:34:32;11.60;99.90
44166;DHT22;30476;53.468;9.826;2023-03-14T02:36:59;11.60;99.90
44166;DHT22;30476;53.468;9.826;2023-03-14T02:39:37;11.60;99.90
44166;DHT22;30476;53.468;9.826;2023-03-14T02:42:03;11.60;99.90
44166;DHT22;30476;53.468;9.826;2023-03-14T02:44:29;11.60;99.90
44166;DHT22;30476;53.468;9.826;2023-03-14T02:46:56;11.50;99.90
44166;DHT22;30476;53.468;9.826;2023-03-14T02:49:22;11.50;99.90
44166;DHT22;30476;53.468;9.826;2023-03-14T02:51:48;11.50;99.90
44166;DHT22;30476;53.468;9.826;2023-03-14T02:54:15;11.50;99.90
44166;DHT22;30476;53.468;9.826;2023-03-14T02:56:41;11.40;99.90
44166;DHT22;30476;53.468;9.826;2023-03-14T02:59:07;11.50;99.90
44166;DHT22;30476;53.468;9.826;2023-03-14T03:01:34;11.50;99.90
44166;DHT22;30476;53.468;9.826;2023-03-14T03:04:00;11.50;99.90
44166;DHT22;30476;53.468;9.826;2023-03-14T03:06:26;11.50;99.90
44166;DHT22;30476;53.468;9.826;2023-03-14T03:08:52;11.50;99.90
44166;DHT22;30476;53.468;9.826;2023-03-14T03:11:18;11.60;99.90
44166;DHT22;30476;53.468;9.826;2023-03-14T03:13:44;11.50;99.90
44166;DHT22;30476;53.468;9.826;2023-03-14T03:16:09;11.50;99.90
44166;DHT22;30476;53.468;9.826;2023-03-14T03:18:35;11.70;99.90
44166;DHT22;30476;53.468;9.826;2023-03-14T03:21:03;11.50;99.90
44166;DHT22;30476;53.468;9.826;2023-03-14T03:23:29;11.60;99.90
44166;DHT22;30476;53.468;9.826;2023-03-14T03:25:55;11.60;99.90
44166;DHT22;30476;53.468;9.826;2023-03-14T03:28:21;11.60;99.90
44166;DHT22;30476;53.468;9.826;2023-03-14T03:30:47;11.60;99.90
44166;DHT22;30476;53.468;9.826;2023-03-14T03:33:13;11.70;99.90
44166;DHT22;30476;53.468;9.826;2023-03-14T03:35:44;11.70;99.90
44166;DHT22;30476;53.468;9.826;2023-03-14T03:38:11;11.70;99.90
44166;DHT22;30476;53.468;9.826;2023-03-14T03:40:38;11.70;99.90
44166;DHT22;30476;53.468;9.826;2023-03-14T03:43:04;11.70;99.90
44166;DHT22;30476;53.468;9.826;2023-03-14T03:45:30;11.70;99.90
44166;DHT22;30476;53.468;9.826;2023-03-14T03:47:56;11.60;99.90
44166;DHT22;30476;53.468;9.826;2023-03-14T03:50:22;11.60;99.90
44166;DHT22;30476;53.468;9.826;2023-03-14T03:52:47;11.70;99.90
44166;DHT22;30476;53.468;9.826;2023-03-14T03:55:13;11.60;99.90
44166;DHT22;30476;53.468;9.826;2023-03-14T03:57:39;11.70;99.90
44166;DHT22;30476;53.468;9.826;2023-03-14T04:00:06;11.70;99.90
44166;DHT22;30476;53.468;9.826;2023-03-14T04:02:34;11.60;99.90
44166;DHT22;30476;53.468;9.826;2023-03-14T04:05:00;11.60;99.90
44166;DHT22;30476;53.468;9.826;2023-03-14T04:07:26;11.60;99.90
44166;DHT22;30476;53.468;9.826;2023-03-14T04:09:52;11.60;99.90
44166;DHT22;30476;53.468;9.826;2023-03-14T04:12:17;11.70;99.90
44166;DHT22;30476;53.468;9.826;2023-03-14T04:14:44;11.60;99.90
44166;DHT22;30476;53.468;9.826;2023-03-14T04:17:10;11.70;99.90
44166;DHT22;30476;53.468;9.826;2023-03-14T04:19:36;11.60;99.90
44166;DHT22;30476;53.468;9.826;2023-03-14T04:22:02;11.50;99.90
44166;DHT22;30476;53.468;9.826;2023-03-14T04:24:28;11.60;99.90
44166;DHT22;30476;53.468;9.826;2023-03-14T04:26:53;11.60;99.90
44166;DHT22;30476;53.468;9.826;2023-03-14T04:29:19;11.60;99.90
44166;DHT22;30476;53.468;9.826;2023-03-14T04:31:45;11.50;99.90
44166;DHT22;30476;53.468;9.826;2023-03-14T04:34:11;11.50;99.90
44166;DHT22;30476;53.468;9.826;2023-03-14T04:36:37;11.60;99.90
44166;DHT22;30476;53.468;9.826;2023-03-14T04:39:03;11.60;99.90
44166;DHT22;30476;53.468;9.826;2023-03-14T04:41:29;11.60;99.90
44166;DHT22;30476;53.468;9.826;2023-03-14T04:43:56;11.60;99.90
44166;DHT22;30476;53.468;9.826;2023-03-14T04:46:22;11.60;99.90
44166;DHT22;30476;53.468;9.826;2023-03-14T04:48:47;11.70;99.90
44166;DHT22;30476;53.468;9.826;2023-03-14T04:51:13;11.70;99.90
44166;DHT22;30476;53.468;9.826;2023-03-14T04:53:39;11.70;99.90
44166;DHT22;30476;53.468;9.826;2023-03-14T04:56:06;11.70;99.90
44166;DHT22;30476;53.468;9.826;2023-03-14T04:58:32;11.70;99.90
44166;DHT22;30476;53.468;9.826;2023-03-14T05:01:02;11.70;99.90
44166;DHT22;30476;53.468;9.826;2023-03-14T05:03:29;11.70;99.90
44166;DHT22;30476;53.468;9.826;2023-03-14T05:05:55;11.70;99.90
44166;DHT22;30476;53.468;9.826;2023-03-14T05:08:23;11.70;99.90
44166;DHT22;30476;53.468;9.826;2023-03-14T05:10:56;11.80;99.90
44166;DHT22;30476;53.468;9.826;2023-03-14T05:13:22;11.80;99.90
44166;DHT22;30476;53.468;9.826;2023-03-14T05:15:49;11.70;99.90
44166;DHT22;30476;53.468;9.826;2023-03-14T05:18:16;11.80;99.90
44166;DHT22;30476;53.468;9.826;2023-03-14T05:20:42;11.80;99.90
44166;DHT22;30476;53.468;9.826;2023-03-14T05:23:11;11.80;99.90
44166;DHT22;30476;53.468;9.826;2023-03-14T05:25:37;11.90;99.90
44166;DHT22;30476;53.468;9.826;2023-03-14T05:28:03;11.90;99.90
44166;DHT22;30476;53.468;9.826;2023-03-14T05:30:29;11.90;99.90
44166;DHT22;30476;53.468;9.826;2023-03-14T05:32:56;11.80;99.90
44166;DHT22;30476;53.468;9.826;2023-03-14T05:35:22;11.80;99.90
44166;DHT22;30476;53.468;9.826;2023-03-14T05:37:47;11.80;99.90
44166;DHT22;30476;53.468;9.826;2023-03-14T05:40:13;11.70;99.90
44166;DHT22;30476;53.468;9.826;2023-03-14T05:42:39;11.70;99.90
44166;DHT22;30476;53.468;9.826;2023-03-14T05:45:05;11.60;99.90
44166;DHT22;30476;53.468;9.826;2023-03-14T05:47:31;11.60;99.90
44166;DHT22;30476;53.468;9.826;2023-03-14T05:49:57;11.50;99.90
44166;DHT22;30476;53.468;9.826;2023-03-14T05:52:23;11.50;99.90
44166;DHT22;30476;53.468;9.826;2023-03-14T05:54:49;11.50;99.90
44166;DHT22;30476;53.468;9.826;2023-03-14T05:57:14;11.60;99.90
44166;DHT22;30476;53.468;9.826;2023-03-14T05:59:40;11.50;99.90
44166;DHT22;30476;53.468;9.826;2023-03-14T06:02:06;11.50;99.90
44166;DHT22;30476;53.468;9.826;2023-03-14T06:04:32;11.50;99.90
44166;DHT22;30476;53.468;9.826;2023-03-14T06:06:58;11.50;99.90
44166;DHT22;30476;53.468;9.826;2023-03-14T06:09:24;11.50;99.90
44166;DHT22;30476;53.468;9.826;2023-03-14T06:11:50;11.40;99.90
44166;DHT22;30476;53.468;9.826;2023-03-14T06:14:16;11.40;99.90
44166;DHT22;30476;53.468;9.826;2023-03-14T06:16:42;11.40;99.90
44166;DHT22;30476;53.468;9.826;2023-03-14T06:19:07;11.30;99.90
44166;DHT22;30476;53.468;9.826;2023-03-14T06:21:33;11.30;99.90
44166;DHT22;30476;53.468;9.826;2023-03-14T06:23:59;11.30;99.90
44166;DHT22;30476;53.468;9.826;2023-03-14T06:26:25;11.30;99.90
44166;DHT22;30476;53.468;9.826;2023-03-14T06:28:51;11.30;99.90
44166;DHT22;30476;53.468;9.826;2023-03-14T06:31:17;11.20;99.90
44166;DHT22;30476;53.468;9.826;2023-03-14T06:33:43;11.30;99.90
44166;DHT22;30476;53.468;9.826;2023-03-14T06:36:09;11.20;99.90
44166;DHT22;30476;53.468;9.826;2023-03-14T06:38:35;11.20;99.90
44166;DHT22;30476;53.468;9.826;2023-03-14T06:41:05;11.20;99.90
44166;DHT22;30476;53.468;9.826;2023-03-14T06:43:31;11.10;99.90
44166;DHT22;30476;53.468;9.826;2023-03-14T06:45:57;11.20;99.90
44166;DHT22;30476;53.468;9.826;2023-03-14T06:48:22;11.30;99.90
44166;DHT22;30476;53.468;9.826;2023-03-14T06:50:49;11.30;99.90
44166;DHT22;30476;53.468;9.826;2023-03-14T06:53:15;11.30;99.90
44166;DHT22;30476;53.468;9.826;2023-03-14T06:55:41;11.30;99.90
44166;DHT22;30476;53.468;9.826;2023-03-14T06:58:06;11.30;99.90
44166;DHT22;30476;53.468;9.826;2023-03-14T07:00:34;11.20;99.90
44166;DHT22;30476;53.468;9.826;2023-03-14T07:03:00;11.20;99.90
44166;DHT22;30476;53.468;9.826;2023-03-14T07:05:26;11.20;99.90
44166;DHT22;30476;53.468;9.826;2023-03-14T07:07:51;11.30;99.90
44166;DHT22;30476;53.468;9.826;2023-03-14T07:10:17;11.30;99.90
44166;DHT22;30476;53.468;9.826;2023-03-14T07:12:43;11.30;99.90
44166;DHT22;30476;53.468;9.826;2023-03-14T07:15:09;11.30;99.90
44166;DHT22;30476;53.468;9.826;2023-03-14T07:17:35;11.30;99.90
44166;DHT22;30476;53.468;9.826;2023-03-14T07:20:01;11.20;99.90
44166;DHT22;30476;53.468;9.826;2023-03-14T07:22:28;11.30;99.90
44166;DHT22;30476;53.468;9.826;2023-03-14T07:24:54;11.30;99.90
44166;DHT22;30476;53.468;9.826;2023-03-14T07:27:20;11.30;99.90
44166;DHT22;30476;53.468;9.826;2023-03-14T07:29:46;11.30;99.90
44166;DHT22;30476;53.468;9.826;2023-03-14T07:32:12;11.40;99.90
44166;DHT22;30476;53.468;9.826;2023-03-14T07:34:43;11.30;99.90
44166;DHT22;30476;53.468;9.826;2023-03-14T07:37:09;11.30;99.90
44166;DHT22;30476;53.468;9.826;2023-03-14T07:39:35;11.30;99.90
44166;DHT22;30476;53.468;9.826;2023-03-14T07:42:01;11.20;99.90
44166;DHT22;30476;53.468;9.826;2023-03-14T07:44:26;11.30;99.90
44166;DHT22;30476;53.468;9.826;2023-03-14T07:46:52;11.30;99.90
44166;DHT22;30476;53.468;9.826;2023-03-14T07:49:18;11.30;99.90
44166;DHT22;30476;53.468;9.826;2023-03-14T07:51:47;11.40;99.90
44166;DHT22;30476;53.468;9.826;2023-03-14T07:54:13;11.30;99.90
44166;DHT22;30476;53.468;9.826;2023-03-14T07:56:39;11.30;99.90
44166;DHT22;30476;53.468;9.826;2023-03-14T07:59:05;11.40;99.90
44166;DHT22;30476;53.468;9.826;2023-03-14T08:01:31;11.30;99.90
44166;DHT22;30476;53.468;9.826;2023-03-14T08:03:57;11.30;99.90
44166;DHT22;30476;53.468;9.826;2023-03-14T08:06:22;11.30;99.90
44166;DHT22;30476;53.468;9.826;2023-03-14T08:08:48;11.30;99.90
44166;DHT22;30476;53.468;9.826;2023-03-14T08:11:14;11.30;99.90
44166;DHT22;30476;53.468;9.826;2023-03-14T08:13:40;11.40;99.90
44166;DHT22;30476;53.468;9.826;2023-03-14T08:16:06;11.40;99.90
44166;DHT22;30476;53.468;9.826;2023-03-14T08:18:32;11.40;99.90
44166;DHT22;30476;53.468;9.826;2023-03-14T08:20:58;11.40;99.90
44166;DHT22;30476;53.468;9.826;2023-03-14T08:23:24;11.50;99.90
44166;DHT22;30476;53.468;9.826;2023-03-14T08:25:51;11.60;99.90
44166;DHT22;30476;53.468;9.826;2023-03-14T08:28:17;11.50;99.90
44166;DHT22;30476;53.468;9.826;2023-03-14T08:30:43;11.60;99.90
44166;DHT22;30476;53.468;9.826;2023-03-14T08:33:10;11.70;99.90
44166;DHT22;30476;53.468;9.826;2023-03-14T08:35:37;11.70;99.90
44166;DHT22;30476;53.468;9.826;2023-03-14T08:38:03;11.70;99.90
44166;DHT22;30476;53.468;9.826;2023-03-14T08:40:29;11.70;99.90
44166;DHT22;30476;53.468;9.826;2023-03-14T08:42:55;11.80;99.90
44166;DHT22;30476;53.468;9.826;2023-03-14T08:45:21;11.80;99.90
44166;DHT22;30476;53.468;9.826;2023-03-14T08:47:47;11.80;99.90
44166;DHT22;30476;53.468;9.826;2023-03-14T08:50:13;11.80;99.90
44166;DHT22;30476;53.468;9.826;2023-03-14T08:52:39;11.80;99.90
44166;DHT22;30476;53.468;9.826;2023-03-14T08:55:07;11.80;99.90
44166;DHT22;30476;53.468;9.826;2023-03-14T08:57:33;11.80;99.90
44166;DHT22;30476;53.468;9.826;2023-03-14T08:59:59;11.80;99.90
44166;DHT22;30476;53.468;9.826;2023-03-14T09:02:26;11.80;99.90
44166;DHT22;30476;53.468;9.826;2023-03-14T09:04:52;11.80;99.90
44166;DHT22;30476;53.468;9.826;2023-03-14T09:07:18;11.90;99.90
44166;DHT22;30476;53.468;9.826;2023-03-14T09:09:45;11.90;99.90
44166;DHT22;30476;53.468;9.826;2023-03-14T09:12:11;11.90;99.90
44166;DHT22;30476;53.468;9.826;2023-03-14T09:14:37;11.80;99.90
44166;DHT22;30476;53.468;9.826;2023-03-14T09:17:03;11.90;99.90
44166;DHT22;30476;53.468;9.826;2023-03-14T09:19:30;11.80;99.90
44166;DHT22;30476;53.468;9.826;2023-03-14T09:21:56;11.90;99.90
44166;DHT22;30476;53.468;9.826;2023-03-14T09:24:22;11.80;99.90
44166;DHT22;30476;53.468;9.826;2023-03-14T09:26:47;11.80;99.90
44166;DHT22;30476;53.468;9.826;2023-03-14T09:29:13;11.70;99.90
44166;DHT22;30476;53.468;9.826;2023-03-14T09:31:39;11.80;99.90
44166;DHT22;30476;53.468;9.826;2023-03-14T09:34:05;11.80;99.90
44166;DHT22;30476;53.468;9.826;2023-03-14T09:36:31;11.80;99.90
44166;DHT22;30476;53.468;9.826;2023-03-14T09:38:57;11.80;99.90
44166;DHT22;30476;53.468;9.826;2023-03-14T09:41:27;11.80;99.90
44166;DHT22;30476;53.468;9.826;2023-03-14T09:44:16;11.80;99.90
44166;DHT22;30476;53.468;9.826;2023-03-14T09:46:45;11.80;99.90
44166;DHT22;30476;53.468;9.826;2023-03-14T09:49:22;11.80;99.90
44166;DHT22;30476;53.468;9.826;2023-03-14T09:51:51;11.70;99.90
44166;DHT22;30476;53.468;9.826;2023-03-14T09:54:37;11.70;99.90
44166;DHT22;30476;53.468;9.826;2023-03-14T09:57:05;11.60;99.90
44166;DHT22;30476;53.468;9.826;2023-03-14T09:59:33;11.60;99.90
44166;DHT22;30476;53.468;9.826;2023-03-14T10:02:01;11.40;99.90
44166;DHT22;30476;53.468;9.826;2023-03-14T10:04:38;11.20;99.90
44166;DHT22;30476;53.468;9.826;2023-03-14T10:07:11;10.90;99.90
44166;DHT22;30476;53.468;9.826;2023-03-14T10:09:38;10.60;99.90
44166;DHT22;30476;53.468;9.826;2023-03-14T10:12:04;10.30;99.90
44166;DHT22;30476;53.468;9.826;2023-03-14T10:14:34;10.00;99.90
44166;DHT22;30476;53.468;9.826;2023-03-14T10:17:11;9.90;99.90
44166;DHT22;30476;53.468;9.826;2023-03-14T10:19:51;9.60;99.90
44166;DHT22;30476;53.468;9.826;2023-03-14T10:22:18;9.50;99.90
44166;DHT22;30476;53.468;9.826;2023-03-14T10:24:53;9.30;99.90
44166;DHT22;30476;53.468;9.826;2023-03-14T10:27:32;9.10;99.90
44166;DHT22;30476;53.468;9.826;2023-03-14T10:30:00;9.00;99.90
44166;DHT22;30476;53.468;9.826;2023-03-14T10:32:38;8.90;99.90
44166;DHT22;30476;53.468;9.826;2023-03-14T10:35:23;8.80;99.90
44166;DHT22;30476;53.468;9.826;2023-03-14T10:37:50;8.70;99.90
44166;DHT22;30476;53.468;9.826;2023-03-14T10:40:18;8.60;99.90
44166;DHT22;30476;53.468;9.826;2023-03-14T10:42:44;8.50;99.90
44166;DHT22;30476;53.468;9.826;2023-03-14T10:45:28;8.40;99.90
44166;DHT22;30476;53.468;9.826;2023-03-14T10:47:54;8.40;99.90
44166;DHT22;30476;53.468;9.826;2023-03-14T10:50:30;8.20;99.90
44166;DHT22;30476;53.468;9.826;2023-03-14T10:52:57;8.20;99.90
44166;DHT22;30476;53.468;9.826;2023-03-14T10:55:26;8.00;99.90
44166;DHT22;30476;53.468;9.826;2023-03-14T10:57:52;8.00;99.90
44166;DHT22;30476;53.468;9.826;2023-03-14T11:00:23;7.80;99.90
44166;DHT22;30476;53.468;9.826;2023-03-14T11:02:58;7.70;99.90
44166;DHT22;30476;53.468;9.826;2023-03-14T11:05:46;7.60;99.90
44166;DHT22;30476;53.468;9.826;2023-03-14T11:08:36;7.50;99.90
44166;DHT22;30476;53.468;9.826;2023-03-14T11:11:22;7.50;99.90
44166;DHT22;30476;53.468;9.826;2023-03-14T11:14:23;7.30;99.90
44166;DHT22;30476;53.468;9.826;2023-03-14T11:17:24;7.20;99.90
44166;DHT22;30476;53.468;9.826;2023-03-14T11:23:09;6.90;99.90
44166;DHT22;30476;53.468;9.826;2023-03-14T11:30:54;6.80;99.90
44166;DHT22;30476;53.468;9.826;2023-03-14T11:33:37;6.80;99.90
44166;DHT22;30476;53.468;9.826;2023-03-14T11:36:07;6.80;99.90
44166;DHT22;30476;53.468;9.826;2023-03-14T11:38:49;6.90;99.90
44166;DHT22;30476;53.468;9.826;2023-03-14T11:41:37;6.90;99.90
44166;DHT22;30476;53.468;9.826;2023-03-14T11:44:14;6.90;99.90
44166;DHT22;30476;53.468;9.826;2023-03-14T11:49:40;7.00;99.90
44166;DHT22;30476;53.468;9.826;2023-03-14T11:52:23;7.00;99.90
44166;DHT22;30476;53.468;9.826;2023-03-14T11:54:58;7.10;99.90
44166;DHT22;30476;53.468;9.826;2023-03-14T11:57:25;7.10;99.90
44166;DHT22;30476;53.468;9.826;2023-03-14T12:05:28;7.20;99.90
44166;DHT22;30476;53.468;9.826;2023-03-14T12:10:50;7.30;99.90
44166;DHT22;30476;53.468;9.826;2023-03-14T12:13:17;7.30;99.90
44166;DHT22;30476;53.468;9.826;2023-03-14T12:15:56;7.20;99.90
44166;DHT22;30476;53.468;9.826;2023-03-14T12:18:29;7.30;99.90
44166;DHT22;30476;53.468;9.826;2023-03-14T12:21:11;7.40;99.90
44166;DHT22;30476;53.468;9.826;2023-03-14T12:23:51;7.30;99.90
44166;DHT22;30476;53.468;9.826;2023-03-14T12:26:24;7.40;99.90
44166;DHT22;30476;53.468;9.826;2023-03-14T12:29:16;7.30;99.90
44166;DHT22;30476;53.468;9.826;2023-03-14T12:31:45;7.40;99.90
44166;DHT22;30476;53.468;9.826;2023-03-14T12:39:40;7.40;99.90
44166;DHT22;30476;53.468;9.826;2023-03-14T12:48:18;7.40;99.90
44166;DHT22;30476;53.468;9.826;2023-03-14T12:50:53;7.30;99.90
44166;DHT22;30476;53.468;9.826;2023-03-14T13:02:00;7.10;99.90
44166;DHT22;30476;53.468;9.826;2023-03-14T13:04:36;7.10;99.90
44166;DHT22;30476;53.468;9.826;2023-03-14T13:07:04;7.00;99.90
44166;DHT22;30476;53.468;9.826;2023-03-14T13:12:11;7.10;99.90
44166;DHT22;30476;53.468;9.826;2023-03-14T13:14:45;7.10;99.90
44166;DHT22;30476;53.468;9.826;2023-03-14T13:19:56;7.10;99.90
44166;DHT22;30476;53.468;9.826;2023-03-14T13:22:31;7.20;99.90
44166;DHT22;30476;53.468;9.826;2023-03-14T13:25:06;7.30;99.90
44166;DHT22;30476;53.468;9.826;2023-03-14T13:27:34;7.40;99.90
44166;DHT22;30476;53.468;9.826;2023-03-14T13:30:15;7.50;99.90
44166;DHT22;30476;53.468;9.826;2023-03-14T13:32:43;7.60;99.90
44166;DHT22;30476;53.468;9.826;2023-03-14T13:35:23;7.70;99.90
44166;DHT22;30476;53.468;9.826;2023-03-14T13:37:59;7.70;99.90
44166;DHT22;30476;53.468;9.826;2023-03-14T13:40:32;7.80;99.90
44166;DHT22;30476;53.468;9.826;2023-03-14T13:43:05;7.80;99.90
44166;DHT22;30476;53.468;9.826;2023-03-14T13:45:40;7.80;99.90
44166;DHT22;30476;53.468;9.826;2023-03-14T13:48:09;7.80;99.90
44166;DHT22;30476;53.468;9.826;2023-03-14T13:50:36;7.90;99.90
44166;DHT22;30476;53.468;9.826;2023-03-14T13:53:02;7.90;99.90
44166;DHT22;30476;53.468;9.826;2023-03-14T13:55:29;7.90;99.90
44166;DHT22;30476;53.468;9.826;2023-03-14T13:57:55;7.90;99.90
44166;DHT22;30476;53.468;9.826;2023-03-14T14:00:24;8.00;99.90
44166;DHT22;30476;53.468;9.826;2023-03-14T14:02:57;8.00;99.90
44166;DHT22;30476;53.468;9.826;2023-03-14T14:05:27;8.00;99.90
44166;DHT22;30476;53.468;9.826;2023-03-14T14:07:53;8.10;99.90
44166;DHT22;30476;53.468;9.826;2023-03-14T14:10:20;8.10;99.90
44166;DHT22;30476;53.468;9.826;2023-03-14T14:12:53;8.10;99.90
44166;DHT22;30476;53.468;9.826;2023-03-14T14:15:23;8.20;99.90
44166;DHT22;30476;53.468;9.826;2023-03-14T14:17:55;8.20;99.90
44166;DHT22;30476;53.468;9.826;2023-03-14T14:20:27;8.30;99.90
44166;DHT22;30476;53.468;9.826;2023-03-14T14:23:05;8.30;99.90
44166;DHT22;30476;53.468;9.826;2023-03-14T14:25:32;8.40;99.70
44166;DHT22;30476;53.468;9.826;2023-03-14T14:27:58;8.50;98.80
44166;DHT22;30476;53.468;9.826;2023-03-14T14:30:30;8.40;98.40
44166;DHT22;30476;53.468;9.826;2023-03-14T14:33:12;8.40;99.30
44166;DHT22;30476;53.468;9.826;2023-03-14T14:35:38;8.30;98.80
44166;DHT22;30476;53.468;9.826;2023-03-14T14:38:12;8.30;99.40
44166;DHT22;30476;53.468;9.826;2023-03-14T14:40:45;8.20;99.90
44166;DHT22;30476;53.468;9.826;2023-03-14T14:43:16;8.10;99.90
44166;DHT22;30476;53.468;9.826;2023-03-14T14:45:42;8.20;99.50
44166;DHT22;30476;53.468;9.826;2023-03-14T14:48:10;8.10;99.50
44166;DHT22;30476;53.468;9.826;2023-03-14T14:50:44;8.10;98.40
44166;DHT22;30476;53.468;9.826;2023-03-14T14:53:39;8.10;98.70
44166;DHT22;30476;53.468;9.826;2023-03-14T14:56:18;8.10;97.90
44166;DHT22;30476;53.468;9.826;2023-03-14T14:58:48;8.00;98.30
44166;DHT22;30476;53.468;9.826;2023-03-14T15:01:17;8.00;98.80
44166;DHT22;30476;53.468;9.826;2023-03-14T15:03:45;8.00;99.30
44166;DHT22;30476;53.468;9.826;2023-03-14T15:06:13;8.00;98.60
44166;DHT22;30476;53.468;9.826;2023-03-14T15:08:40;7.90;97.70
44166;DHT22;30476;53.468;9.826;2023-03-14T15:11:08;7.90;98.20
44166;DHT22;30476;53.468;9.826;2023-03-14T15:13:34;7.90;98.00
44166;DHT22;30476;53.468;9.826;2023-03-14T15:16:00;7.90;97.90
44166;DHT22;30476;53.468;9.826;2023-03-14T15:18:29;7.80;97.60
44166;DHT22;30476;53.468;9.826;2023-03-14T15:20:55;7.90;98.60
44166;DHT22;30476;53.468;9.826;2023-03-14T15:23:22;7.90;98.20
44166;DHT22;30476;53.468;9.826;2023-03-14T15:25:48;7.80;98.40
44166;DHT22;30476;53.468;9.826;2023-03-14T15:28:28;7.90;98.60
44166;DHT22;30476;53.468;9.826;2023-03-14T15:30:56;7.80;98.60
44166;DHT22;30476;53.468;9.826;2023-03-14T15:33:23;7.80;99.10
44166;DHT22;30476;53.468;9.826;2023-03-14T15:35:49;7.70;99.40
44166;DHT22;30476;53.468;9.826;2023-03-14T15:38:18;7.70;99.20
44166;DHT22;30476;53.468;9.826;2023-03-14T15:40:46;7.60;98.90
44166;DHT22;30476;53.468;9.826;2023-03-14T15:43:12;7.60;97.50
44166;DHT22;30476;53.468;9.826;2023-03-14T15:45:38;7.50;97.30
44166;DHT22;30476;53.468;9.826;2023-03-14T15:48:04;7.50;97.40
44166;DHT22;30476;53.468;9.826;2023-03-14T15:50:30;7.50;97.40
44166;DHT22;30476;53.468;9.826;2023-03-14T15:52:56;7.50;97.10
44166;DHT22;30476;53.468;9.826;2023-03-14T15:55:22;7.40;97.20
44166;DHT22;30476;53.468;9.826;2023-03-14T15:57:48;7.40;97.80
44166;DHT22;30476;53.468;9.826;2023-03-14T16:00:17;7.30;98.00
44166;DHT22;30476;53.468;9.826;2023-03-14T16:02:44;7.30;97.80
44166;DHT22;30476;53.468;9.826;2023-03-14T16:05:12;7.40;97.50
44166;DHT22;30476;53.468;9.826;2023-03-14T16:07:38;7.30;97.20
44166;DHT22;30476;53.468;9.826;2023-03-14T16:10:05;7.30;97.30
44166;DHT22;30476;53.468;9.826;2023-03-14T16:12:32;7.30;97.40
44166;DHT22;30476;53.468;9.826;2023-03-14T16:14:58;7.30;97.10
44166;DHT22;30476;53.468;9.826;2023-03-14T16:17:24;7.30;97.50
44166;DHT22;30476;53.468;9.826;2023-03-14T16:19:49;7.30;97.30
44166;DHT22;30476;53.468;9.826;2023-03-14T16:22:15;7.30;97.30
44166;DHT22;30476;53.468;9.826;2023-03-14T16:24:41;7.30;97.20
44166;DHT22;30476;53.468;9.826;2023-03-14T16:27:07;7.30;96.20
44166;DHT22;30476;53.468;9.826;2023-03-14T16:29:33;7.20;96.60
44166;DHT22;30476;53.468;9.826;2023-03-14T16:31:58;7.30;97.00
44166;DHT22;30476;53.468;9.826;2023-03-14T16:34:24;7.20;96.70